createdAt,value
2023-12-17T00:01:09.043Z,122.47
2023-12-17T00:03:37.386Z,113.30
2023-12-17T00:06:05.814Z,120.37
2023-12-17T00:08:34.073Z,108.80
2023-12-17T00:11:03.551Z,114.80
2023-12-17T00:13:31.781Z,111.50
2023-12-17T00:15:59.926Z,118.97
2023-12-17T00:18:28.192Z,117.73
2023-12-17T00:20:56.435Z,112.17
2023-12-17T00:23:24.642Z,109.73
2023-12-17T00:25:53.179Z,116.87
2023-12-17T00:28:22.718Z,112.93
2023-12-17T00:30:51.808Z,105.03
2023-12-17T00:33:20.213Z,101.83
2023-12-17T00:35:48.492Z,93.60
2023-12-17T00:38:16.732Z,93.00
2023-12-17T00:40:45.013Z,85.20
2023-12-17T00:43:13.151Z,77.67
2023-12-17T00:45:42.641Z,78.93
2023-12-17T00:48:10.998Z,84.13
2023-12-17T00:50:39.273Z,87.43
2023-12-17T00:53:07.465Z,87.10
2023-12-17T00:55:35.674Z,81.90
2023-12-17T00:58:03.817Z,83.00
2023-12-17T01:00:32.051Z,77.77
2023-12-17T01:03:01.649Z,73.23
2023-12-17T01:05:29.943Z,68.40
2023-12-17T01:07:58.124Z,62.33
2023-12-17T01:10:26.328Z,66.07
2023-12-17T01:12:54.530Z,63.77
2023-12-17T01:15:22.807Z,93.35
2023-12-17T01:17:51.218Z,50.80
2023-12-17T01:20:20.809Z,42.43
2023-12-17T01:22:49.046Z,37.00
2023-12-17T01:25:17.344Z,33.83
2023-12-17T01:27:45.469Z,31.00
2023-12-17T01:30:14.198Z,30.33
2023-12-17T01:32:42.497Z,29.50
2023-12-17T01:35:11.022Z,29.93
2023-12-17T01:37:40.786Z,28.83
2023-12-17T01:40:09.851Z,33.97
2023-12-17T01:42:38.005Z,35.87
2023-12-17T01:45:07.331Z,38.30
2023-12-17T01:47:36.336Z,35.53
2023-12-17T01:50:04.724Z,37.60
2023-12-17T01:52:33.147Z,37.37
2023-12-17T01:55:02.713Z,36.63
2023-12-17T01:57:30.909Z,36.97
2023-12-17T01:59:59.509Z,38.07
2023-12-17T02:02:27.772Z,38.57
2023-12-17T02:04:56.143Z,37.53
2023-12-17T02:07:24.340Z,36.80
2023-12-17T02:09:52.464Z,36.43
2023-12-17T02:12:28.216Z,37.37
2023-12-17T02:14:56.466Z,38.03
2023-12-17T02:17:28.748Z,37.33
2023-12-17T02:19:57.025Z,37.23
2023-12-17T02:22:25.568Z,39.40
2023-12-17T02:24:55.714Z,33.77
2023-12-17T02:27:24.378Z,33.43
2023-12-17T02:29:53.000Z,34.70
2023-12-17T02:32:22.428Z,29.43
2023-12-17T02:34:50.828Z,31.50
2023-12-17T02:37:19.527Z,27.97
2023-12-17T02:39:47.936Z,27.30
2023-12-17T02:42:18.527Z,26.57
2023-12-17T02:44:47.010Z,26.77
2023-12-17T02:47:15.227Z,28.37
2023-12-17T02:49:43.872Z,29.43
2023-12-17T02:52:12.232Z,30.33
2023-12-17T02:54:40.431Z,34.00
2023-12-17T02:57:08.675Z,33.97
2023-12-17T02:59:38.255Z,35.83
2023-12-17T03:02:06.390Z,39.93
2023-12-17T03:04:34.542Z,40.07
2023-12-17T03:07:02.746Z,40.53
2023-12-17T03:09:31.522Z,36.97
2023-12-17T03:11:59.854Z,34.97
2023-12-17T03:14:28.025Z,34.57
2023-12-17T03:16:57.537Z,35.80
2023-12-17T03:19:26.239Z,35.97
2023-12-17T03:21:54.481Z,32.50
2023-12-17T03:24:22.687Z,33.13
2023-12-17T03:26:52.109Z,34.17
2023-12-17T03:29:20.315Z,36.67
2023-12-17T03:31:48.523Z,37.30
2023-12-17T03:34:18.266Z,37.53
2023-12-17T03:36:46.509Z,40.40
2023-12-17T03:39:14.688Z,40.80
2023-12-17T03:41:42.975Z,45.13
2023-12-17T03:44:11.230Z,47.07
2023-12-17T03:46:39.371Z,47.23
2023-12-17T03:49:07.700Z,44.03
2023-12-17T03:51:37.292Z,46.23
2023-12-17T03:54:05.503Z,52.70
2023-12-17T03:56:33.736Z,54.83
2023-12-17T03:59:01.973Z,57.27
2023-12-17T04:01:30.131Z,57.57
2023-12-17T04:03:59.333Z,70.40
2023-12-17T04:06:26.664Z,69.83
2023-12-17T04:08:56.300Z,72.17
2023-12-17T04:11:24.489Z,86.03
2023-12-17T04:13:52.656Z,82.50
2023-12-17T04:16:20.876Z,81.67
2023-12-17T04:18:49.244Z,81.30
2023-12-17T04:21:17.754Z,78.60
2023-12-17T04:23:46.463Z,78.43
2023-12-17T04:26:16.278Z,72.60
2023-12-17T04:28:44.562Z,91.50
2023-12-17T04:31:13.376Z,89.77
2023-12-17T04:33:41.782Z,101.37
2023-12-17T04:36:10.529Z,86.40
2023-12-17T04:38:38.923Z,102.63
2023-12-17T04:41:07.258Z,123.90
2023-12-17T04:43:36.821Z,149.27
2023-12-17T04:46:05.088Z,116.87
2023-12-17T04:48:33.508Z,131.97
2023-12-17T04:51:01.943Z,134.93
2023-12-17T04:53:30.179Z,169.17
2023-12-17T04:55:58.331Z,187.40
2023-12-17T04:58:27.681Z,181.73
2023-12-17T05:01:00.158Z,193.17
2023-12-17T05:03:28.478Z,212.30
2023-12-17T05:05:56.888Z,212.30
2023-12-17T05:08:25.145Z,237.83
2023-12-17T05:10:53.356Z,228.90
2023-12-17T05:13:21.587Z,190.73
2023-12-17T05:15:49.776Z,188.47
2023-12-17T05:18:19.528Z,183.37
2023-12-17T05:20:49.373Z,176.80
2023-12-17T05:23:17.583Z,174.73
2023-12-17T05:25:45.829Z,203.17
2023-12-17T05:28:14.065Z,163.73
2023-12-17T05:30:45.449Z,178.20
2023-12-17T05:33:15.717Z,191.50
2023-12-17T05:35:45.383Z,184.03
2023-12-17T05:38:13.573Z,174.60
2023-12-17T05:40:41.742Z,174.97
2023-12-17T05:43:10.333Z,182.63
2023-12-17T05:45:47.650Z,205.17
2023-12-17T05:48:19.460Z,199.13
2023-12-17T05:50:49.343Z,181.53
2023-12-17T05:53:17.621Z,174.00
2023-12-17T05:55:45.868Z,164.57
2023-12-17T05:58:14.021Z,150.23
2023-12-17T06:00:42.258Z,148.83
2023-12-17T06:03:10.517Z,138.93
2023-12-17T06:05:38.837Z,148.70
2023-12-17T06:08:08.381Z,142.60
2023-12-17T06:10:37.262Z,134.53
2023-12-17T06:13:05.402Z,129.07
2023-12-17T06:15:33.833Z,124.10
2023-12-17T06:18:02.313Z,118.17
2023-12-17T06:20:31.425Z,120.60
2023-12-17T06:22:59.618Z,114.87
2023-12-17T06:25:29.151Z,106.37
2023-12-17T06:27:57.331Z,113.33
2023-12-17T06:30:25.613Z,101.17
2023-12-17T06:32:54.068Z,100.07
2023-12-17T06:35:22.317Z,95.47
2023-12-17T06:37:50.665Z,100.53
2023-12-17T06:40:19.180Z,96.90
2023-12-17T06:42:48.767Z,97.30
2023-12-17T06:45:17.060Z,99.13
2023-12-17T06:47:45.517Z,93.93
2023-12-17T06:50:14.287Z,102.73
2023-12-17T06:52:42.456Z,84.60
2023-12-17T06:55:10.858Z,96.40
2023-12-17T06:57:39.352Z,93.70
2023-12-17T07:00:11.836Z,86.97
2023-12-17T07:02:40.397Z,76.83
2023-12-17T07:05:09.785Z,81.70
2023-12-17T07:07:38.362Z,65.37
2023-12-17T07:10:07.457Z,72.50
2023-12-17T07:12:35.705Z,67.13
2023-12-17T07:15:04.027Z,74.63
2023-12-17T07:17:33.636Z,73.50
2023-12-17T07:20:02.100Z,67.53
2023-12-17T07:22:30.372Z,73.40
2023-12-17T07:24:58.679Z,66.23
2023-12-17T07:27:26.876Z,75.07
2023-12-17T07:29:55.148Z,63.40
2023-12-17T07:32:23.413Z,70.37
2023-12-17T07:34:53.035Z,81.80
2023-12-17T07:37:21.228Z,83.33
2023-12-17T07:39:49.427Z,69.23
2023-12-17T07:42:18.308Z,68.80
2023-12-17T07:44:47.388Z,66.20
2023-12-17T07:47:15.626Z,62.27
2023-12-17T07:49:44.403Z,62.60
2023-12-17T07:52:14.848Z,73.60
2023-12-17T07:54:43.047Z,69.10
2023-12-17T07:57:11.276Z,73.47
2023-12-17T07:59:39.504Z,56.63
2023-12-17T08:02:07.657Z,58.10
2023-12-17T08:04:38.752Z,51.33
2023-12-17T08:07:07.269Z,52.10
2023-12-17T08:09:36.792Z,50.83
2023-12-17T08:12:05.315Z,59.57
2023-12-17T08:14:33.534Z,55.80
2023-12-17T08:17:01.806Z,63.00
2023-12-17T08:19:30.003Z,59.20
2023-12-17T08:21:58.279Z,59.63
2023-12-17T08:24:26.801Z,59.83
2023-12-17T08:26:58.557Z,59.77
2023-12-17T08:29:26.836Z,59.37
2023-12-17T08:31:56.733Z,60.93
2023-12-17T08:34:25.925Z,49.43
2023-12-17T08:36:54.189Z,50.30
2023-12-17T08:39:24.527Z,57.83
2023-12-17T08:41:53.168Z,56.43
2023-12-17T08:44:24.382Z,51.03
2023-12-17T08:46:52.584Z,52.03
2023-12-17T08:49:21.772Z,52.53
2023-12-17T08:51:50.985Z,62.40
2023-12-17T08:54:20.687Z,53.20
2023-12-17T08:56:49.031Z,56.40
2023-12-17T08:59:17.306Z,56.63
2023-12-17T09:01:46.857Z,48.20
2023-12-17T09:04:15.028Z,46.10
2023-12-17T09:06:44.690Z,52.53
2023-12-17T09:09:12.972Z,59.73
2023-12-17T09:11:41.211Z,50.43
2023-12-17T09:14:09.728Z,56.70
2023-12-17T09:16:39.066Z,55.40
2023-12-17T09:19:08.859Z,56.87
2023-12-17T09:21:37.181Z,60.53
2023-12-17T09:24:05.726Z,51.67
2023-12-17T09:26:33.967Z,53.80
2023-12-17T09:29:02.170Z,61.77
2023-12-17T09:31:30.417Z,51.77
2023-12-17T09:33:58.697Z,59.73
2023-12-17T09:36:28.855Z,47.40
2023-12-17T09:38:57.111Z,41.47
2023-12-17T09:41:25.404Z,45.87
2023-12-17T09:43:53.799Z,41.93
2023-12-17T09:46:21.998Z,46.73
2023-12-17T09:48:50.552Z,42.70
2023-12-17T09:51:19.882Z,39.13
2023-12-17T09:53:49.458Z,39.10
2023-12-17T09:56:16.885Z,37.30
2023-12-17T09:58:45.214Z,41.60
2023-12-17T10:01:13.600Z,39.50
2023-12-17T10:03:42.376Z,56.80
2023-12-17T10:06:11.018Z,55.47
2023-12-17T10:08:39.514Z,44.53
2023-12-17T10:11:10.083Z,38.40
2023-12-17T10:13:38.282Z,40.63
2023-12-17T10:16:06.767Z,35.43
2023-12-17T10:18:35.970Z,36.83
2023-12-17T10:21:05.658Z,36.27
2023-12-17T10:23:47.891Z,32.83
2023-12-17T10:26:17.518Z,29.10
2023-12-17T10:28:47.281Z,33.80
2023-12-17T10:31:17.894Z,36.27
2023-12-17T10:33:53.884Z,33.30
2023-12-17T10:36:22.742Z,27.43
2023-12-17T10:38:51.733Z,31.20
2023-12-17T10:41:21.349Z,31.47
2023-12-17T10:43:50.893Z,32.27
2023-12-17T10:46:19.555Z,36.67
2023-12-17T10:48:49.058Z,25.47
2023-12-17T10:51:18.108Z,25.97
2023-12-17T10:53:46.407Z,26.63
2023-12-17T10:56:15.890Z,24.80
2023-12-17T10:58:46.034Z,24.93
2023-12-17T11:01:14.608Z,23.70
2023-12-17T11:03:43.307Z,23.00
2023-12-17T11:06:11.731Z,24.30
2023-12-17T11:08:40.003Z,25.90
2023-12-17T11:11:08.710Z,23.73
2023-12-17T11:13:37.850Z,23.57
2023-12-17T11:16:21.039Z,22.73
2023-12-17T11:18:51.053Z,22.43
2023-12-17T11:21:19.687Z,22.10
2023-12-17T11:23:49.171Z,22.80
2023-12-17T11:26:19.084Z,20.33
2023-12-17T11:28:47.876Z,19.23
2023-12-17T11:31:16.052Z,17.07
2023-12-17T11:33:45.212Z,19.40
2023-12-17T11:36:15.178Z,16.40
2023-12-17T11:38:43.414Z,16.23
2023-12-17T11:41:11.577Z,16.03
2023-12-17T11:43:39.809Z,14.27
2023-12-17T11:46:12.323Z,11.20
2023-12-17T11:48:44.688Z,12.27
2023-12-17T11:51:12.999Z,11.57
2023-12-17T11:53:44.610Z,11.10
2023-12-17T11:56:12.801Z,9.63
2023-12-17T11:58:48.414Z,10.00
2023-12-17T12:01:17.537Z,10.37
2023-12-17T12:03:45.954Z,9.23
2023-12-17T12:06:15.063Z,8.73
2023-12-17T12:08:46.976Z,8.57
2023-12-17T12:11:15.594Z,8.10
2023-12-17T12:13:45.097Z,7.43
2023-12-17T12:16:14.103Z,7.93
2023-12-17T12:18:42.567Z,7.93
2023-12-17T12:21:17.607Z,6.77
2023-12-17T12:23:53.634Z,7.40
2023-12-17T12:26:22.187Z,7.43
2023-12-17T12:28:57.008Z,6.37
2023-12-17T12:31:25.565Z,8.40
2023-12-17T12:33:55.143Z,6.30
2023-12-17T12:36:23.506Z,5.50
2023-12-17T12:39:05.920Z,5.40
2023-12-17T12:41:34.600Z,5.33
2023-12-17T12:44:02.958Z,4.67
2023-12-17T12:46:31.199Z,4.73
2023-12-17T12:48:59.918Z,5.20
2023-12-17T12:51:31.171Z,4.77
2023-12-17T12:53:59.604Z,4.20
2023-12-17T12:56:29.276Z,4.30
2023-12-17T12:58:57.569Z,3.83
2023-12-17T13:01:25.781Z,4.37
2023-12-17T13:03:54.725Z,4.27
2023-12-17T13:06:24.481Z,4.40
2023-12-17T13:08:52.773Z,4.33
2023-12-17T13:11:21.112Z,4.73
2023-12-17T13:13:50.717Z,3.90
2023-12-17T13:16:18.925Z,4.40
2023-12-17T13:18:50.665Z,4.17
2023-12-17T13:21:24.447Z,3.90
2023-12-17T13:23:52.864Z,3.90
2023-12-17T13:26:21.113Z,3.50
2023-12-17T13:28:50.661Z,3.80
2023-12-17T13:31:18.966Z,3.73
2023-12-17T13:33:47.242Z,4.00
2023-12-17T13:36:15.469Z,2.97
2023-12-17T13:38:43.675Z,3.30
2023-12-17T13:41:11.816Z,3.57
2023-12-17T13:43:39.995Z,3.60
2023-12-17T13:46:09.579Z,3.87
2023-12-17T13:48:37.886Z,3.40
2023-12-17T13:51:06.472Z,3.20
2023-12-17T13:53:34.653Z,3.20
2023-12-17T13:56:02.863Z,3.20
2023-12-17T13:58:31.104Z,2.93
2023-12-17T14:00:59.430Z,3.50
2023-12-17T14:03:29.200Z,3.43
2023-12-17T14:05:57.640Z,3.60
2023-12-17T14:08:25.791Z,3.20
2023-12-17T14:10:53.947Z,3.33
2023-12-17T14:13:24.481Z,4.20
2023-12-17T14:15:52.915Z,3.33
2023-12-17T14:18:21.151Z,3.40
2023-12-17T14:20:50.765Z,3.70
2023-12-17T14:23:19.046Z,3.27
2023-12-17T14:25:51.552Z,2.93
2023-12-17T14:28:20.447Z,3.27
2023-12-17T14:30:49.161Z,3.53
2023-12-17T14:33:18.235Z,3.27
2023-12-17T14:35:46.696Z,4.27
2023-12-17T14:38:16.232Z,3.73
2023-12-17T14:40:44.514Z,3.60
2023-12-17T14:43:12.725Z,3.60
2023-12-17T14:45:41.077Z,4.10
2023-12-17T14:48:10.574Z,3.83
2023-12-17T14:50:39.444Z,3.87
2023-12-17T14:53:07.703Z,3.97
2023-12-17T14:55:37.306Z,3.73
2023-12-17T14:58:08.901Z,4.03
2023-12-17T15:00:37.155Z,3.97
2023-12-17T15:03:05.703Z,4.23
2023-12-17T15:05:33.893Z,4.10
2023-12-17T15:08:03.579Z,4.00
2023-12-17T15:10:31.916Z,4.23
2023-12-17T15:13:01.453Z,4.00
2023-12-17T15:15:29.697Z,4.13
2023-12-17T15:17:59.646Z,4.27
2023-12-17T15:20:29.068Z,4.53
2023-12-17T15:22:57.355Z,4.40
2023-12-17T15:25:25.525Z,4.17
2023-12-17T15:27:54.115Z,4.80
2023-12-17T15:30:23.769Z,4.43
2023-12-17T15:32:55.623Z,4.93
2023-12-17T15:35:23.995Z,4.50
2023-12-17T15:37:52.157Z,4.70
2023-12-17T15:40:21.915Z,5.10
2023-12-17T15:42:50.158Z,5.10
2023-12-17T15:45:18.515Z,5.60
2023-12-17T15:47:48.151Z,5.03
2023-12-17T15:50:16.502Z,5.10
2023-12-17T15:52:44.944Z,4.90
2023-12-17T15:55:13.231Z,5.20
2023-12-17T15:57:41.478Z,5.30
2023-12-17T16:00:11.842Z,5.67
2023-12-17T16:02:40.289Z,5.93
2023-12-17T16:05:10.665Z,5.53
2023-12-17T16:07:48.642Z,5.30
2023-12-17T16:10:16.913Z,6.03
2023-12-17T16:12:45.241Z,5.60
2023-12-17T16:15:13.691Z,5.60
2023-12-17T16:17:41.922Z,6.03
2023-12-17T16:20:12.871Z,6.10
2023-12-17T16:22:44.084Z,6.30
2023-12-17T16:25:13.699Z,6.23
2023-12-17T16:27:41.906Z,7.03
2023-12-17T16:30:10.542Z,8.70
2023-12-17T16:32:39.995Z,7.13
2023-12-17T16:35:09.876Z,7.60
2023-12-17T16:37:40.668Z,7.20
2023-12-17T16:40:10.071Z,7.17
2023-12-17T16:42:38.591Z,6.43
2023-12-17T16:45:08.075Z,6.47
2023-12-17T16:47:36.389Z,6.73
2023-12-17T16:50:04.779Z,6.10
2023-12-17T16:52:32.969Z,6.80
2023-12-17T16:55:03.134Z,5.93
2023-12-17T16:57:31.421Z,6.93
2023-12-17T17:00:00.434Z,6.20
2023-12-17T17:02:29.568Z,6.27
2023-12-17T17:04:57.828Z,6.20
2023-12-17T17:07:26.988Z,6.20
2023-12-17T17:09:56.287Z,6.50
2023-12-17T17:12:25.841Z,5.60
2023-12-17T17:14:54.059Z,6.07
2023-12-17T17:17:22.262Z,6.10
2023-12-17T17:19:51.140Z,6.77
2023-12-17T17:22:20.200Z,6.43
2023-12-17T17:24:48.365Z,6.23
2023-12-17T17:27:16.695Z,6.47
2023-12-17T17:29:46.212Z,6.27
2023-12-17T17:32:14.912Z,6.90
2023-12-17T17:34:44.566Z,7.30
2023-12-17T17:37:12.850Z,7.03
2023-12-17T17:39:41.100Z,6.70
2023-12-17T17:42:09.344Z,6.93
2023-12-17T17:44:37.551Z,6.63
2023-12-17T17:47:08.266Z,7.07
2023-12-17T17:49:36.512Z,8.00
2023-12-17T17:52:04.860Z,7.00
2023-12-17T17:54:33.148Z,7.27
2023-12-17T17:57:01.405Z,8.07
2023-12-17T17:59:29.569Z,8.30
2023-12-17T18:01:57.816Z,7.67
2023-12-17T18:04:27.438Z,7.03
2023-12-17T18:06:55.582Z,7.97
2023-12-17T18:09:23.759Z,9.13
2023-12-17T18:11:51.959Z,7.87
2023-12-17T18:14:20.177Z,7.37
2023-12-17T18:16:48.441Z,8.40
2023-12-17T18:19:16.831Z,7.77
2023-12-17T18:21:46.423Z,8.23
2023-12-17T18:24:14.924Z,8.17
2023-12-17T18:26:43.363Z,7.93
2023-12-17T18:29:12.598Z,8.03
2023-12-17T18:31:40.793Z,8.53
2023-12-17T18:34:09.292Z,6.97
2023-12-17T18:36:37.751Z,8.30
2023-12-17T18:39:07.383Z,8.37
2023-12-17T18:41:35.625Z,8.23
2023-12-17T18:44:03.904Z,8.37
2023-12-17T18:46:32.103Z,8.07
2023-12-17T18:49:00.379Z,8.03
2023-12-17T18:51:28.638Z,9.10
2023-12-17T18:53:57.077Z,8.87
2023-12-17T18:56:26.665Z,7.40
2023-12-17T18:58:54.928Z,8.33
2023-12-17T19:01:23.128Z,7.97
2023-12-17T19:03:51.454Z,8.20
2023-12-17T19:06:19.869Z,8.03
2023-12-17T19:08:48.749Z,7.87
2023-12-17T19:11:18.285Z,8.70
2023-12-17T19:13:47.805Z,8.47
2023-12-17T19:16:18.522Z,7.50
2023-12-17T19:18:46.799Z,8.80
2023-12-17T19:21:15.170Z,8.50
2023-12-17T19:23:43.513Z,8.87
2023-12-17T19:26:11.835Z,9.30
2023-12-17T19:28:40.669Z,9.37
2023-12-17T19:31:15.032Z,9.33
2023-12-17T19:33:43.438Z,9.40
2023-12-17T19:36:11.731Z,9.33
2023-12-17T19:38:42.511Z,9.43
2023-12-17T19:41:11.236Z,9.57
2023-12-17T19:43:39.443Z,9.33
2023-12-17T19:46:07.672Z,9.83
2023-12-17T19:48:37.346Z,9.73
2023-12-17T19:51:06.024Z,10.37
2023-12-17T19:53:34.254Z,11.13
2023-12-17T19:56:02.379Z,9.30
2023-12-17T19:58:30.535Z,10.30
2023-12-17T20:00:58.824Z,9.30
2023-12-17T20:03:27.164Z,9.47
2023-12-17T20:05:56.805Z,9.17
2023-12-17T20:08:26.106Z,9.83
2023-12-17T20:10:58.136Z,9.77
2023-12-17T20:13:26.554Z,9.73
2023-12-17T20:15:54.783Z,10.80
2023-12-17T20:18:26.548Z,10.40
2023-12-17T20:20:54.967Z,10.83
2023-12-17T20:23:24.927Z,11.03
2023-12-17T20:25:53.151Z,11.00
2023-12-17T20:28:21.590Z,10.93
2023-12-17T20:30:49.842Z,10.90
2023-12-17T20:33:18.290Z,10.50
2023-12-17T20:35:46.730Z,11.33
2023-12-17T20:38:15.652Z,11.50
2023-12-17T20:40:45.475Z,11.37
2023-12-17T20:43:14.160Z,11.30
2023-12-17T20:45:42.575Z,11.27
2023-12-17T20:48:15.086Z,10.27
2023-12-17T20:50:44.068Z,11.20
2023-12-17T20:53:12.448Z,11.80
2023-12-17T20:55:40.663Z,11.97
2023-12-17T20:58:10.189Z,10.80
2023-12-17T21:00:38.576Z,12.37
2023-12-17T21:03:08.713Z,13.00
2023-12-17T21:05:36.998Z,11.00
2023-12-17T21:08:05.299Z,12.27
2023-12-17T21:10:33.506Z,12.17
2023-12-17T21:13:01.735Z,12.00
2023-12-17T21:15:31.262Z,10.43
2023-12-17T21:17:59.566Z,10.83
2023-12-17T21:20:28.219Z,9.93
2023-12-17T21:22:58.565Z,10.27
2023-12-17T21:25:26.744Z,10.30
2023-12-17T21:27:55.127Z,10.20
2023-12-17T21:30:23.705Z,12.00
2023-12-17T21:32:53.426Z,11.33
2023-12-17T21:35:21.830Z,11.30
2023-12-17T21:37:50.022Z,11.20
2023-12-17T21:40:18.215Z,11.10
2023-12-17T21:42:47.015Z,11.10
2023-12-17T21:45:15.443Z,11.53
2023-12-17T21:47:44.431Z,11.00
2023-12-17T21:50:14.204Z,11.37
2023-12-17T21:52:42.424Z,11.20
2023-12-17T21:55:10.778Z,11.47
2023-12-17T21:57:43.235Z,11.77
2023-12-17T22:00:16.085Z,11.63
2023-12-17T22:02:44.533Z,11.47
2023-12-17T22:05:14.438Z,12.83
2023-12-17T22:07:44.573Z,11.83
2023-12-17T22:10:15.343Z,12.90
2023-12-17T22:12:43.778Z,12.47
2023-12-17T22:15:12.120Z,12.00
2023-12-17T22:17:40.560Z,11.87
2023-12-17T22:20:09.474Z,12.50
2023-12-17T22:22:39.093Z,12.67
2023-12-17T22:25:08.003Z,14.00
2023-12-17T22:27:36.265Z,13.30
2023-12-17T22:30:05.546Z,13.17
2023-12-17T22:32:33.989Z,13.43
2023-12-17T22:35:02.306Z,11.60
2023-12-17T22:37:30.515Z,11.40
2023-12-17T22:40:00.056Z,11.60
2023-12-17T22:42:28.667Z,11.70
2023-12-17T22:44:56.830Z,11.90
2023-12-17T22:47:29.791Z,11.47
2023-12-17T22:49:58.063Z,11.63
2023-12-17T22:52:26.293Z,11.57
2023-12-17T22:54:54.420Z,12.17
2023-12-17T22:57:23.980Z,12.17
2023-12-17T22:59:52.154Z,12.33
2023-12-17T23:02:20.385Z,13.13
2023-12-17T23:04:48.687Z,12.93
2023-12-17T23:07:16.841Z,12.47
2023-12-17T23:09:45.034Z,12.60
2023-12-17T23:12:13.275Z,13.20
2023-12-17T23:14:42.799Z,12.57
2023-12-17T23:17:10.950Z,12.50
2023-12-17T23:19:39.194Z,13.40
2023-12-17T23:22:07.443Z,12.33
2023-12-17T23:24:37.417Z,12.23
2023-12-17T23:27:05.891Z,13.80
2023-12-17T23:29:34.101Z,12.17
2023-12-17T23:32:03.617Z,13.17
2023-12-17T23:34:31.974Z,13.77
2023-12-17T23:37:00.269Z,12.27
2023-12-17T23:39:28.431Z,13.53
2023-12-17T23:41:56.658Z,13.13
2023-12-17T23:44:25.444Z,13.50
2023-12-17T23:46:53.586Z,13.67
2023-12-17T23:49:23.427Z,14.07
2023-12-17T23:51:51.725Z,14.17
2023-12-17T23:54:19.969Z,14.87
2023-12-17T23:56:48.151Z,15.20
2023-12-17T23:59:16.340Z,14.23
